Alfredo Ramirez

Scout - Millonarios
3 Apr 2027
Samstag
Verarbeitung

Persönlichkeit

Anpassungsfähigkeit (16) Ehrgeiz (11) Kontroverse (6) Loyalität (18) Druck (1) Professionalität (17) Fairness (18) Temperament (20)

Profil

Trainerstil Demokratisch
Lizenz Nationale A
Entschlossenheit 6
Menschenführung 8
Motivation 11
Disziplin 8
Arbeitszufriedenheit
49%
Ermüdung
0%
Rolle Scout
Gehalt 15.7K p/W
Vertrag 14.03.2030

Leistung

Verhalten Normal
Trainingseffektivität
28%
Spielerentwicklung
70%
Verletzungsprävention
55%
Taktische Umsetzung
65%

Letzte Ereignisse

Spieler begutachtet jetzt
Nahm an einer Scouting-Besprechung teil jetzt
Spieler begutachtet jetzt
Spieler begutachtet jetzt
Nahm an einer Scouting-Besprechung teil 7T her
Spieler begutachtet 7T her
Spieler begutachtet 7T her
Spieler begutachtet 7T her

Aktuell beobachtet

129
Spieler Verein Status Fähigkeit Vertrauen Beobachtet Zuletzt beobachtet Letzte Stimme
Ethan Ampadu Leeds United Aktiv 163 / 144 40% 2 02.04.2027 -
Noah Sadiki Sunderland Aktiv 127 / 153 40% 1 02.04.2027 -
Antonino Gallo Lecce Aktiv 126 / 141 40% 1 01.04.2027 -
Ondrej Duda Zamalek Aktiv 133 / 131 40% 1 01.04.2027 -
Kenny Tete Fulham Aktiv 159 / 152 40% 1 31.03.2027 -
Exequiel Palacios Ipswich Town Aktiv 140 / 147 40% 1 31.03.2027 -
Óscar Mingueza Crystal Palace Aktiv 137 / 153 40% 1 30.03.2027 -
Nordi Mukiele Sunderland Aktiv 131 / 149 40% 1 30.03.2027 -
Pablo Maffeo Olympiacos Aktiv 134 / 129 40% 1 29.03.2027 -
Michael Baidoo Plymouth Argyle Aktiv 110 / 137 40% 1 29.03.2027 -
Lloyd Jones Charlton Athletic Aktiv 141 / 115 40% 1 26.03.2027 -
Alex Scott Bournemouth Aktiv 163 / 150 40% 1 26.03.2027 -
Diego Murillo Málaga Aktiv 133 / 114 40% 2 25.03.2027 -
Adrien Truffert Bournemouth Aktiv 145 / 144 40% 1 23.03.2027 -
Dennis Cirkin Queens Park Rangers Aktiv 141 / 128 40% 1 23.03.2027 -
Saša Lukić Ipswich Town Aktiv 126 / 153 40% 3 22.03.2027 -
Zak Swanson Doncaster Rovers Aktiv 129 / 107 40% 1 22.03.2027 -
Xaver Schlager Nottingham Forest Aktiv 167 / 147 40% 1 21.03.2027 -
Derry Murkin Derby County Aktiv 141 / 120 40% 1 21.03.2027 -
Diego Costa Krasnodar Aktiv 124 / 122 40% 1 14.12.2026 -
Ki-Jana Hoever Sparta Prague Aktiv 137 / 124 40% 1 14.12.2026 -
Franco Díaz KV Oostende Aktiv 104 / 117 40% 2 30.11.2026 -
Ignacio Vázquez Platense Aktiv 127 / 125 40% 1 28.11.2026 -
Emanuel Mammana Vélez Aktiv 118 / 127 40% 1 28.11.2026 -
Santiago Silva Boston River Aktiv 116 / 110 40% 3 25.11.2026 -
Chris Brady Chicago Fire Aktiv 131 / 133 40% 2 25.11.2026 -
Josh Brownhill Al-Shabab Aktiv 121 / 122 40% 1 24.11.2026 -
Lukáš Červ Viktoria Plzen Aktiv 144 / 125 40% 1 24.11.2026 -
Nazareno Colombo Racing Club Aktiv 125 / 132 40% 2 23.11.2026 -
Facundo Zabala Independiente Aktiv 120 / 116 40% 1 23.11.2026 -
Chris Mepham West Bromwich Albion Aktiv 111 / 130 40% 1 23.11.2026 -
Pablo Ramón Racing Club Aktiv 134 / 128 40% 1 23.11.2026 -
Adrián Alavés Aktiv 134 / 111 40% 3 22.11.2026 -
Francisco Salerno Defensores Unidos Aktiv 117 / 101 40% 1 22.11.2026 -
Ştefan Târnovanu FCSB Aktiv 120 / 121 40% 2 21.11.2026 -
Robin Roefs Sunderland Aktiv 153 / 155 40% 1 21.11.2026 -
Francisco Álvarez Argentinos Juniors Aktiv 114 / 125 40% 2 20.11.2026 -
Iván Martín Racing Club Aktiv 138 / 141 40% 1 20.11.2026 -
Damián Fernández Defensa y Justicia Aktiv 137 / 131 40% 1 13.11.2026 -
Gastón Hernández San Lorenzo Aktiv 130 / 121 40% 1 13.11.2026 -
Felipe Zenobio Tigre Aktiv 121 / 127 40% 2 12.11.2026 -
Nahuel Furtado Wanderers Aktiv 135 / 122 40% 1 12.11.2026 -
Sebastián Valdez Independiente Aktiv 116 / 132 40% 1 12.11.2026 -
Agustín Lastra Estudiantes Aktiv 115 / 107 40% 1 12.11.2026 -
Facundo Miño Deportivo Riestra Aktiv 121 / 115 40% 2 10.11.2026 -
Marlon Gomes Shakhtar Aktiv 135 / 148 40% 1 10.11.2026 -
Leopold Wahlstedt Rosenborg Aktiv 114 / 121 40% 1 10.11.2026 -
Luis Ingolotti Atlético Tucumán Aktiv 111 / 115 40% 3 08.11.2026 -
Lukas Jensen Millwall Aktiv 104 / 106 40% 2 08.11.2026 -
Enzo Martínez Gimnasia La Plata Aktiv 116 / 119 40% 1 08.11.2026 -
Manuel Roffo Cerro Porteno Aktiv 115 / 124 40% 1 04.11.2026 -
Will Dennis Milton Keynes Dons Aktiv 84 / 89 40% 1 30.10.2026 -
Lucas Souto Defensa y Justicia Aktiv 135 / 124 40% 1 29.10.2026 -
Sergio Garcia La Equidad Aktiv 137 / 120 40% 1 29.10.2026 -
Santiago Fernández Talleres Aktiv 119 / 123 40% 2 27.10.2026 -
Adrián Sánchez Belgrano Aktiv 114 / 122 40% 1 27.10.2026 -
Camilo Cándido Nacional Aktiv 129 / 122 40% 1 26.10.2026 -
Vicente Poggi Godoy Cruz Aktiv 137 / 127 40% 1 26.10.2026 -
Tomás Ahumada Audax Italiano Aktiv 98 / 103 40% 1 25.10.2026 -
Michael Cooper Sheffield United Aktiv 116 / 120 40% 1 25.10.2026 -
Emiliano Álvarez Progreso Aktiv 121 / 122 40% 1 24.10.2026 -
Federico Varese Racing Aktiv 120 / 114 40% 1 23.10.2026 -
Kostantis Tzolakis Hull City Aktiv 123 / 131 40% 1 23.10.2026 -
George Wickens Lincoln City Aktiv 112 / 128 40% 1 22.10.2026 -
Nicolás Sumavil Platense Aktiv 126 / 111 40% 1 22.10.2026 -
Julio Alonso Huesca Aktiv 118 / 117 40% 1 21.10.2026 -
Martín Garay Tigre Aktiv 109 / 121 40% 1 21.10.2026 -
Radek Vítek Middlesbrough Aktiv 143 / 136 40% 1 19.10.2026 -
Mateo Clemente San Lorenzo Aktiv 98 / 100 40% 1 19.10.2026 -
Hernán de la Fuente Instituto Aktiv 121 / 126 40% 1 17.10.2026 -
Cristian Paz Deportivo Riestra Aktiv 109 / 126 40% 1 16.10.2026 -
Evander FC Cincinnati Aktiv 138 / 128 40% 1 16.10.2026 -
Santiago Kubiszyn Morón Aktiv 105 / 110 40% 1 14.10.2026 -
Natan Betis Aktiv 146 / 136 40% 1 14.10.2026 -
Rodrigo González Aldosivi Aktiv 121 / 113 40% 1 13.10.2026 -
Nahuel Galardi Maipú Aktiv 107 / 105 40% 1 11.10.2026 -
Santino Barbi Talleres Aktiv 106 / 110 40% 1 10.10.2026 -
Iván Villalba Independiente Rivadavia Aktiv 129 / 117 40% 1 09.10.2026 -
Matías Fernández Colo-Colo Aktiv 121 / 115 40% 1 09.10.2026 -
Grégoire Coudert Burnley Aktiv 135 / 113 40% 1 07.10.2026 -
Ricardo Chávez Monterrey Aktiv 141 / 135 40% 1 05.10.2026 -
Alan Cervantes Club America Aktiv 129 / 118 40% 1 05.10.2026 -
Julián Kadijevic Gimnasia La Plata Aktiv 103 / 110 40% 1 03.10.2026 -
Felipe San Juan Gimnasia y Esgrima Aktiv 111 / 106 40% 1 02.10.2026 -
Roman Celentano FC Cincinnati Aktiv 122 / 109 40% 1 02.10.2026 -
Dominik Takáč Slovan Bratislava Aktiv 144 / 121 40% 2 01.10.2026 -
Mauro Silveira Junior Aktiv 116 / 116 40% 1 01.10.2026 -
Sebastián Meza Huracán Aktiv 136 / 127 40% 1 30.09.2026 -
Julián Lobelos Arsenal Aktiv 101 / 105 40% 1 27.09.2026 -
Sebastian Hernandez Cortulua Aktiv 124 / 121 40% 1 27.09.2026 -
Enzo Vázquez Central Norte Aktiv 96 / 109 40% 1 25.09.2026 -
Fernando Tapia Club America Aktiv 118 / 126 40% 1 25.09.2026 -
Niklas Hedl Rapid Wien Aktiv 119 / 134 40% 2 21.09.2026 -
Ľubomír Belko Viking Aktiv 117 / 134 40% 1 15.09.2026 -
Jonathan Arteaga Veracruz Aktiv 106 / 115 40% 1 14.09.2026 -
Andrés Micolta Pachuca Aktiv 116 / 109 40% 1 14.09.2026 -
Richard Ledezma Guadalajara Aktiv 142 / 129 40% 1 13.09.2026 -
Joaquim Tigres Aktiv 138 / 123 40% 1 13.09.2026 -
Lautaro Amadé Defensa y Justicia Aktiv 118 / 124 40% 3 12.09.2026 -
Omar Campos Cruz Azul Aktiv 122 / 132 40% 1 12.09.2026 -
Ivan Edson Veracruz Aktiv 137 / 129 40% 1 12.09.2026 -
Rodrigo Morínigo Libertad Aktiv 122 / 122 40% 2 10.09.2026 -
Samuel Brolin Kalmar FF Aktiv 115 / 103 40% 1 10.09.2026 -
Israel Reyes Club America Aktiv 131 / 143 40% 1 09.09.2026 -
Ralph Orquin OGC Nice Aktiv 132 / 121 40% 1 09.09.2026 -
Mads Hedenstad AGF Aktiv 97 / 128 40% 1 09.09.2026 -
Nahuel Manganelli Dinamo Batumi Aktiv 130 / 120 40% 1 05.09.2026 -
Parsa Jafari Zob Ahan Aktiv 86 / 118 40% 1 01.09.2026 -
Ellery Balcombe Brentford Aktiv 116 / 105 40% 1 01.09.2026 -
Oleksandr Saputin Zorya Aktiv 103 / 123 40% 1 30.08.2026 -
Mateusz Kochalski Qarabag Aktiv 124 / 129 40% 1 27.08.2026 -
Axel Alderweireld KV Oostende Aktiv 154 / 142 40% 1 27.08.2026 -
Aldo Pérez Guarani Aktiv 116 / 100 40% 1 25.08.2026 -
Alejandro Rodríguez Deportivo Cali Aktiv 112 / 126 40% 2 24.08.2026 -
Răzvan Sava Universitatea Craiova Aktiv 119 / 112 40% 1 24.08.2026 -
Esteban Glellel Shonan Bellmare Aktiv 96 / 124 40% 1 23.08.2026 -
Lukas Gütlbauer Wolfsberger AC Aktiv 102 / 109 40% 1 21.08.2026 -
Héctor Holguín Gamba Osaka Aktiv 87 / 99 40% 1 17.08.2026 -
Luka Gavran Toronto FC Aktiv 100 / 117 40% 1 14.08.2026 -
Matt Freese New York City Aktiv 115 / 136 40% 1 14.08.2026 -
Matías Dufour Sportivo Trinidense Aktiv 111 / 106 40% 1 11.08.2026 -
Federico Losas Leon Aktiv 113 / 119 40% 1 10.08.2026 -
Diego Romero Universitario Aktiv 132 / 114 40% 1 07.08.2026 -
Evidence Billiat Ajax Cape Town Aktiv 131 / 113 40% 1 06.08.2026 -
Dmytro Riznyk Shakhtar Aktiv 155 / 149 40% 1 06.08.2026 -
Iñaki Peña Panathinaikos Aktiv 124 / 148 40% 1 05.08.2026 -
César Araújo Tigres Aktiv 134 / 125 40% 1 04.08.2026 -
Liam Varela Veracruz Aktiv 131 / 136 40% 1 04.08.2026 -
Keisuke Osako Sanfrecce Hiroshima Aktiv 134 / 124 40% 1 04.08.2026 -